Aérodrome :
LOGIN :

S'inscrire | Disclaimer

   EN    FR    IT 

 










Légende :    VFR   VFR Marginal   IFR   IFR Intensif   IFR Très Intensif
Visi : 
Plafond : 
>= 8 km
>= 3000ft
5 à 8 km
1000 à 3000 ft
1500m à 5 km
500 à 1000 ft
800 à 1500m
200 à 500 ft
< 800m
< 200 ft
Symboles :   Orages  Brouillard  Fortes neiges  Fortes précipitations  Vent > 20 kt
SIGMETs :   Divers  Orages  Givrage  Turbulence  Onde Orograph.  Cendres Volcan.






- Altitude de l'aérodrome : 62 ft
- Code IATA : TAN


GMTT - Tanger Ibn Batouta

DERNIER METAR :
  • 180230Z 06003KT 3000 BR FEW010 SCT200 12/11 Q1027 NOSIG

METARs EXPIRÉS :
  • 180200Z 08003KT 5000 FEW010 SCT200 12/12 Q1027 NOSIG
  • 180130Z 06004KT 7000 SCT010 SCT200 12/12 Q1027 NOSIG
  • 180100Z 08004KT 7000 SCT010 SCT200 12/12 Q1027 NOSIG
  • 180030Z 09004KT 360V110 5000 FEW010 BKN200 12/12 Q1027 NOSIG
  • 180000Z 07004KT 360V080 5000 FEW010 SCT200 12/12 Q1028 NOSIG

TAF TAF GMTT
Valide du 18 à 00h jusqu'au 19 à 06h UTC


172300Z 1800/1906 14009KT 6000 FEW010 SCT200
PROB40
TEMPO 1800/1809 VRB02KT 3000 BR
PROB30
TEMPO 1801/1807 VRB02KT 0700 FG
BECMG 1811/1814 08014KT
TEMPO 1814/1906 09019G31KT



MET'MAP, la Météo Aéronautique d'un coup d'oeil ! - Copyright ORBIFLY Décembre 2007 - Disclaimer

ORBIFLY MET'MAP TEAM :

Programmation & Développement : Alexandra Zaïnal
Sur une idée originale de : Baudouin d'Aumeries
Assistance à la programmation : Marc-Olivier Méhu
Soutien technique & logistique : Manuel Goepfert

Contact : metmap@orbifly.com




SOURCES & CREDITS :

   NOAA